Time;durP1;ratioP1;P1;durP2;ratioP2;P2;SDS_P1;SDS_P2;PMS_P1;PMS_P2;Temp;Humidity;BMP_temperature;BMP_pressure;BME280_temperature;BME280_humidity;BME280_pressure;Samples;Min_cycle;Max_cycle;Signal;HPM_P1;HPM_P2
2021/09/15 00:01:26;;;;;;;;;;;17.60;99.90;;;;;;5091179;28;19973;-71
2021/09/15 00:03:58;;;;;;;;;;;17.60;99.90;;;;;;5092291;28;19924;-72
2021/09/15 00:06:24;;;;;;;;;;;17.60;99.90;;;;;;5090271;28;20022;-72
2021/09/15 00:08:56;;;;;;;;;;;17.60;99.90;;;;;;5091071;28;20341;-71
2021/09/15 00:11:23;;;;;;;;;;;17.60;99.90;;;;;;5090785;28;19930;-72
2021/09/15 00:13:55;;;;;;;;;;;17.50;99.90;;;;;;5091004;28;19959;-71
2021/09/15 00:16:26;;;;;;;;;;;17.50;99.90;;;;;;5090802;28;19974;-71
2021/09/15 00:18:58;;;;;;;;;;;17.60;99.90;;;;;;5090114;28;19924;-71
2021/09/15 00:21:29;;;;;;;;;;;17.50;99.90;;;;;;5091121;28;19927;-72
2021/09/15 00:23:56;;;;;;;;;;;17.50;99.90;;;;;;5090792;28;19924;-71
2021/09/15 00:26:23;;;;;;;;;;;17.40;99.90;;;;;;5090467;28;19924;-71
2021/09/15 00:28:54;;;;;;;;;;;17.40;99.90;;;;;;5090854;28;19923;-71
2021/09/15 00:31:26;;;;;;;;;;;17.40;99.90;;;;;;5090846;28;19924;-72
2021/09/15 00:33:53;;;;;;;;;;;17.40;99.90;;;;;;5090749;28;20016;-72
2021/09/15 00:36:24;;;;;;;;;;;17.40;99.90;;;;;;5090208;28;20030;-71
2021/09/15 00:38:56;;;;;;;;;;;17.40;99.90;;;;;;5092137;28;19924;-71
2021/09/15 00:41:23;;;;;;;;;;;17.40;99.90;;;;;;5090777;28;19960;-71
2021/09/15 00:43:58;;;;;;;;;;;17.40;99.90;;;;;;5090600;28;20382;-72
2021/09/15 00:46:30;;;;;;;;;;;17.40;99.90;;;;;;5090487;28;19961;-71
2021/09/15 00:49:03;;;;;;;;;;;17.40;99.90;;;;;;5074698;28;19993;-72
2021/09/15 00:51:36;;;;;;;;;;;17.30;99.90;;;;;;5074745;28;19924;-71
2021/09/15 00:54:08;;;;;;;;;;;17.40;99.90;;;;;;5090365;28;19928;-71
2021/09/15 00:56:40;;;;;;;;;;;17.30;99.90;;;;;;5090622;28;19932;-73
2021/09/15 00:59:11;;;;;;;;;;;17.30;99.90;;;;;;5090704;28;19946;-71
2021/09/15 01:01:39;;;;;;;;;;;17.30;99.90;;;;;;5073778;28;19928;-71
2021/09/15 01:04:11;;;;;;;;;;;17.20;99.90;;;;;;5089459;28;20363;-71
2021/09/15 01:06:43;;;;;;;;;;;17.20;99.90;;;;;;5093778;28;20324;-71
2021/09/15 01:09:10;;;;;;;;;;;17.20;99.90;;;;;;5094011;28;19924;-72
2021/09/15 01:11:43;;;;;;;;;;;17.30;99.90;;;;;;5093729;28;19928;-71
2021/09/15 01:14:26;;;;;;;;;;;17.30;99.90;;;;;;5093203;28;19928;-71
2021/09/15 01:17:26;;;;;;;;;;;17.30;99.90;;;;;;5081609;28;19924;-71
2021/09/15 01:20:16;;;;;;;;;;;17.30;99.90;;;;;;5093767;28;19930;-71
2021/09/15 01:23:07;;;;;;;;;;;17.40;99.90;;;;;;5094062;28;20012;-71
2021/09/15 01:26:04;;;;;;;;;;;17.30;99.90;;;;;;5094389;28;19928;-71
2021/09/15 01:28:55;;;;;;;;;;;17.30;99.90;;;;;;5094536;28;20446;-71
2021/09/15 01:31:27;;;;;;;;;;;17.40;99.90;;;;;;5093998;28;19924;-72
2021/09/15 01:33:58;;;;;;;;;;;17.30;99.90;;;;;;5093940;28;19928;-72
2021/09/15 01:36:25;;;;;;;;;;;17.40;99.90;;;;;;5092893;28;20035;-72
2021/09/15 01:38:57;;;;;;;;;;;17.30;99.90;;;;;;5093148;28;20030;-71
2021/09/15 01:41:24;;;;;;;;;;;17.30;99.90;;;;;;5093109;28;19924;-71
2021/09/15 01:43:51;;;;;;;;;;;17.20;99.90;;;;;;5076183;28;19924;-71
2021/09/15 01:46:23;;;;;;;;;;;17.20;99.90;;;;;;5092764;28;19975;-71
2021/09/15 01:48:54;;;;;;;;;;;17.10;99.90;;;;;;5093575;28;19924;-72
2021/09/15 01:51:26;;;;;;;;;;;17.10;99.90;;;;;;5093558;28;19924;-72
2021/09/15 01:53:58;;;;;;;;;;;17.10;99.90;;;;;;5093650;28;19931;-72
2021/09/15 01:56:30;;;;;;;;;;;17.10;99.90;;;;;;5093187;28;19928;-72
2021/09/15 01:59:26;;;;;;;;;;;17.00;99.90;;;;;;5056968;28;19924;-71
2021/09/15 02:02:18;;;;;;;;;;;16.90;99.90;;;;;;5077819;28;19928;-71
2021/09/15 02:04:54;;;;;;;;;;;16.90;99.90;;;;;;5077296;28;19963;-71
2021/09/15 02:07:38;;;;;;;;;;;16.80;99.90;;;;;;5093323;28;19924;-72
2021/09/15 02:10:31;;;;;;;;;;;16.80;99.90;;;;;;5091504;28;20374;-71
2021/09/15 02:13:04;;;;;;;;;;;16.70;99.90;;;;;;5093294;28;19930;-71
2021/09/15 02:15:36;;;;;;;;;;;16.70;99.90;;;;;;5093519;28;19930;-71
2021/09/15 02:18:03;;;;;;;;;;;16.70;99.90;;;;;;5076360;28;19924;-71
2021/09/15 02:20:48;;;;;;;;;;;16.70;99.90;;;;;;5094458;28;20032;-71
2021/09/15 02:23:35;;;;;;;;;;;16.60;99.90;;;;;;5092748;28;19930;-72
2021/09/15 02:26:16;;;;;;;;;;;16.50;99.90;;;;;;5093741;28;19924;-72
2021/09/15 02:28:52;;;;;;;;;;;16.50;99.90;;;;;;5092914;28;19924;-71
2021/09/15 02:31:30;;;;;;;;;;;16.60;99.90;;;;;;5077528;28;20394;-72
2021/09/15 02:34:31;;;;;;;;;;;16.60;99.90;;;;;;5055961;28;19928;-72
2021/09/15 02:37:21;;;;;;;;;;;16.70;99.90;;;;;;5092913;28;19985;-71
2021/09/15 02:40:03;;;;;;;;;;;16.70;99.90;;;;;;5092922;28;19928;-72
2021/09/15 02:43:08;;;;;;;;;;;16.60;99.90;;;;;;5082829;28;19982;-71
2021/09/15 02:45:56;;;;;;;;;;;16.60;99.90;;;;;;5078297;28;19924;-72
2021/09/15 02:48:47;;;;;;;;;;;16.70;99.90;;;;;;5092437;28;19924;-71
2021/09/15 02:51:26;;;;;;;;;;;16.70;99.90;;;;;;5093785;28;20007;-71
2021/09/15 02:54:08;;;;;;;;;;;16.70;99.90;;;;;;5092135;28;19927;-71
2021/09/15 02:56:53;;;;;;;;;;;16.70;99.90;;;;;;5078138;28;19959;-71
2021/09/15 02:59:36;;;;;;;;;;;16.70;99.90;;;;;;5077791;28;19931;-71
2021/09/15 03:02:26;;;;;;;;;;;16.60;99.90;;;;;;5092611;28;19931;-71
2021/09/15 03:05:26;;;;;;;;;;;16.60;99.90;;;;;;5079487;28;19928;-71
2021/09/15 03:08:16;;;;;;;;;;;16.60;99.90;;;;;;5093363;28;20278;-72
2021/09/15 03:10:48;;;;;;;;;;;16.60;99.90;;;;;;5092097;28;19930;-71
2021/09/15 03:13:15;;;;;;;;;;;16.60;99.90;;;;;;5091920;28;19924;-71
2021/09/15 03:15:43;;;;;;;;;;;16.60;99.90;;;;;;5091458;28;20409;-72
2021/09/15 03:18:15;;;;;;;;;;;16.60;99.90;;;;;;5093380;28;19923;-71
2021/09/15 03:20:41;;;;;;;;;;;16.70;99.90;;;;;;5091744;28;19983;-72
2021/09/15 03:23:13;;;;;;;;;;;16.70;99.90;;;;;;5075650;28;19963;-71
2021/09/15 03:25:45;;;;;;;;;;;16.70;99.90;;;;;;5091118;28;19924;-71
2021/09/15 03:28:16;;;;;;;;;;;16.70;99.90;;;;;;5090900;28;19924;-72
2021/09/15 03:30:43;;;;;;;;;;;16.70;99.90;;;;;;5074662;28;19931;-72
2021/09/15 03:33:15;;;;;;;;;;;16.70;99.90;;;;;;5091582;28;19924;-72
2021/09/15 03:35:46;;;;;;;;;;;16.60;99.90;;;;;;5074960;28;19977;-72
2021/09/15 03:38:19;;;;;;;;;;;16.60;99.90;;;;;;5091474;28;19970;-73
2021/09/15 03:40:50;;;;;;;;;;;16.60;99.90;;;;;;5075475;28;19928;-72
2021/09/15 03:43:22;;;;;;;;;;;16.60;99.90;;;;;;5091430;28;19924;-72
2021/09/15 03:45:49;;;;;;;;;;;16.50;99.90;;;;;;5090718;28;19969;-71
2021/09/15 03:48:21;;;;;;;;;;;16.50;99.90;;;;;;5075136;28;20397;-72
2021/09/15 03:50:53;;;;;;;;;;;16.50;99.90;;;;;;5090579;28;19969;-72
2021/09/15 03:53:21;;;;;;;;;;;16.40;99.90;;;;;;5090542;28;20299;-72
2021/09/15 03:55:49;;;;;;;;;;;16.40;99.90;;;;;;5090046;28;20027;-72
2021/09/15 03:58:20;;;;;;;;;;;16.40;99.90;;;;;;5090464;28;19928;-71
2021/09/15 04:00:53;;;;;;;;;;;16.40;99.90;;;;;;5090418;28;19924;-70
2021/09/15 04:03:24;;;;;;;;;;;16.40;99.90;;;;;;5090404;28;19985;-72
2021/09/15 04:05:56;;;;;;;;;;;16.40;99.90;;;;;;5071375;28;19924;-72
2021/09/15 04:08:28;;;;;;;;;;;16.40;99.90;;;;;;5074145;28;19928;-72
2021/09/15 04:10:55;;;;;;;;;;;16.40;99.90;;;;;;5089834;28;19932;-73
2021/09/15 04:13:28;;;;;;;;;;;16.40;99.90;;;;;;5089942;28;19924;-71
2021/09/15 04:16:00;;;;;;;;;;;16.50;99.90;;;;;;5093980;28;20035;-72
2021/09/15 04:18:27;;;;;;;;;;;16.50;99.90;;;;;;5089856;28;19924;-72
2021/09/15 04:20:58;;;;;;;;;;;16.40;99.90;;;;;;5089970;28;19978;-71
2021/09/15 04:23:36;;;;;;;;;;;16.40;99.90;;;;;;5089936;28;19935;-71
2021/09/15 04:31:39;;;;;;;;;;;16.30;99.90;;;;;;5089832;28;19928;-71
2021/09/15 04:34:12;;;;;;;;;;;16.30;99.90;;;;;;5089499;28;19931;-74
2021/09/15 04:36:51;;;;;;;;;;;16.30;99.90;;;;;;5075560;28;19946;-73
2021/09/15 04:39:18;;;;;;;;;;;16.30;99.90;;;;;;5092579;28;20287;-72
2021/09/15 04:41:50;;;;;;;;;;;16.30;99.90;;;;;;5094604;28;19934;-71
2021/09/15 04:44:22;;;;;;;;;;;16.30;99.90;;;;;;5093824;28;20010;-71
2021/09/15 04:46:50;;;;;;;;;;;16.30;99.90;;;;;;5081409;28;20420;-71
2021/09/15 04:49:22;;;;;;;;;;;16.30;99.90;;;;;;5066496;28;19924;-71
2021/09/15 04:51:54;;;;;;;;;;;16.40;99.90;;;;;;5083671;28;19924;-71
2021/09/15 04:54:28;;;;;;;;;;;16.40;99.90;;;;;;5087441;28;20019;-72
2021/09/15 04:56:59;;;;;;;;;;;16.40;99.90;;;;;;5078316;28;20348;-72
2021/09/15 04:59:26;;;;;;;;;;;16.40;99.90;;;;;;5094692;28;19931;-71
2021/09/15 05:01:58;;;;;;;;;;;16.40;99.90;;;;;;5094492;28;19931;-72
2021/09/15 05:04:25;;;;;;;;;;;16.50;99.90;;;;;;5093856;28;19924;-72
2021/09/15 05:07:10;;;;;;;;;;;16.50;99.90;;;;;;5094166;28;20026;-72
2021/09/15 05:09:41;;;;;;;;;;;16.50;99.90;;;;;;5095433;28;19924;-72
2021/09/15 05:12:08;;;;;;;;;;;16.50;99.90;;;;;;5096720;28;20382;-72
2021/09/15 05:14:36;;;;;;;;;;;16.50;99.90;;;;;;5096416;28;19930;-72
2021/09/15 05:17:03;;;;;;;;;;;16.60;99.90;;;;;;5096931;28;20405;-72
2021/09/15 05:19:29;;;;;;;;;;;16.60;99.90;;;;;;5096970;28;20014;-71
2021/09/15 05:22:02;;;;;;;;;;;16.60;99.90;;;;;;5080385;28;19967;-71
2021/09/15 05:24:33;;;;;;;;;;;16.60;99.90;;;;;;5078230;28;20432;-71
2021/09/15 05:27:02;;;;;;;;;;;16.60;99.90;;;;;;5077507;27;19928;-71
2021/09/15 05:29:34;;;;;;;;;;;16.60;99.90;;;;;;5072268;28;20298;-72
2021/09/15 05:32:01;;;;;;;;;;;16.60;99.90;;;;;;5073089;28;19928;-72
2021/09/15 05:34:33;;;;;;;;;;;16.60;99.90;;;;;;5075829;28;19974;-72
2021/09/15 05:37:05;;;;;;;;;;;16.70;99.90;;;;;;5078842;28;19924;-71
2021/09/15 05:39:37;;;;;;;;;;;16.70;99.90;;;;;;5076516;28;19970;-72
2021/09/15 05:42:09;;;;;;;;;;;16.70;99.90;;;;;;5075476;28;20014;-71
2021/09/15 05:44:41;;;;;;;;;;;16.70;99.90;;;;;;5074295;28;19932;-72
2021/09/15 05:47:08;;;;;;;;;;;16.70;99.90;;;;;;5094618;28;19934;-72
2021/09/15 05:49:34;;;;;;;;;;;16.70;99.90;;;;;;5097040;28;19924;-72
2021/09/15 05:52:07;;;;;;;;;;;16.70;99.90;;;;;;5096641;28;20023;-71
2021/09/15 05:54:34;;;;;;;;;;;16.70;99.90;;;;;;5089760;27;19946;-71
2021/09/15 05:57:00;;;;;;;;;;;16.80;99.90;;;;;;5080015;28;19924;-72
2021/09/15 05:59:27;;;;;;;;;;;16.80;99.90;;;;;;5091854;28;19924;-71
2021/09/15 06:01:54;;;;;;;;;;;16.80;99.90;;;;;;5096301;28;19923;-71
2021/09/15 06:04:21;;;;;;;;;;;16.80;99.90;;;;;;5095649;28;19927;-72
2021/09/15 06:06:59;;;;;;;;;;;16.90;99.90;;;;;;5095787;28;19924;-72
2021/09/15 06:09:31;;;;;;;;;;;16.80;99.90;;;;;;5090487;28;19943;-72
2021/09/15 06:12:03;;;;;;;;;;;16.80;99.90;;;;;;5099425;27;19924;-72
2021/09/15 06:14:34;;;;;;;;;;;16.80;99.90;;;;;;5098140;28;19950;-72
2021/09/15 06:17:06;;;;;;;;;;;16.80;99.90;;;;;;5079588;28;19924;-71
2021/09/15 06:19:33;;;;;;;;;;;16.80;99.90;;;;;;5095919;28;19935;-72
2021/09/15 06:22:25;;;;;;;;;;;16.80;99.90;;;;;;5100205;28;20396;-72
2021/09/15 06:25:08;;;;;;;;;;;16.80;99.90;;;;;;5085900;27;19962;-72
2021/09/15 06:27:41;;;;;;;;;;;16.90;99.90;;;;;;5073310;28;19928;-72
2021/09/15 06:30:13;;;;;;;;;;;16.90;99.90;;;;;;5095905;28;19928;-72
2021/09/15 06:32:40;;;;;;;;;;;17.00;99.90;;;;;;5075506;28;20375;-70
2021/09/15 06:35:07;;;;;;;;;;;17.00;99.90;;;;;;5094948;28;20022;-71
2021/09/15 06:37:33;;;;;;;;;;;17.10;99.90;;;;;;5095742;28;20288;-71
2021/09/15 06:40:00;;;;;;;;;;;17.10;99.90;;;;;;5099073;27;19923;-71
2021/09/15 06:42:27;;;;;;;;;;;17.10;99.90;;;;;;5113461;28;19969;-71
2021/09/15 06:44:53;;;;;;;;;;;17.10;99.90;;;;;;5095144;28;20030;-71
2021/09/15 06:47:25;;;;;;;;;;;17.20;99.90;;;;;;5097319;28;20026;-72
2021/09/15 06:49:52;;;;;;;;;;;17.20;99.90;;;;;;5095654;28;20027;-71
2021/09/15 06:52:24;;;;;;;;;;;17.30;99.90;;;;;;5089067;28;20014;-72
2021/09/15 06:54:56;;;;;;;;;;;17.30;99.90;;;;;;5077207;28;19934;-72
2021/09/15 06:57:23;;;;;;;;;;;17.30;99.90;;;;;;5089995;28;19931;-72
2021/09/15 06:59:51;;;;;;;;;;;17.40;99.90;;;;;;5111396;28;19930;-72
2021/09/15 07:02:17;;;;;;;;;;;17.40;99.90;;;;;;5077504;28;19951;-72
2021/09/15 07:04:44;;;;;;;;;;;17.40;99.90;;;;;;5094736;28;20334;-72
2021/09/15 07:07:16;;;;;;;;;;;17.40;99.90;;;;;;5078106;28;19931;-73
2021/09/15 07:09:47;;;;;;;;;;;17.40;99.90;;;;;;5095024;28;19930;-72
2021/09/15 07:12:14;;;;;;;;;;;17.50;99.90;;;;;;5090186;28;20022;-73
2021/09/15 07:14:45;;;;;;;;;;;17.50;99.90;;;;;;5091092;28;19928;-72
2021/09/15 07:17:12;;;;;;;;;;;17.60;99.90;;;;;;5111945;28;19999;-72
2021/09/15 07:19:39;;;;;;;;;;;17.70;99.90;;;;;;5113010;28;20014;-72
2021/09/15 07:22:05;;;;;;;;;;;17.90;99.90;;;;;;5112930;28;19931;-71
2021/09/15 07:24:32;;;;;;;;;;;17.90;99.90;;;;;;5075722;28;20018;-71
2021/09/15 07:27:04;;;;;;;;;;;17.90;99.90;;;;;;5112103;28;19945;-72
2021/09/15 07:29:36;;;;;;;;;;;18.00;99.90;;;;;;5076709;28;19923;-71
2021/09/15 07:32:07;;;;;;;;;;;18.00;99.90;;;;;;5112576;28;20414;-71
2021/09/15 07:34:44;;;;;;;;;;;18.10;99.90;;;;;;5095320;28;19924;-73
2021/09/15 07:37:17;;;;;;;;;;;18.10;99.90;;;;;;5113119;28;20018;-72
2021/09/15 07:39:49;;;;;;;;;;;18.10;99.90;;;;;;5078990;28;19967;-71
2021/09/15 07:42:21;;;;;;;;;;;18.10;99.90;;;;;;5095327;28;19962;-71
2021/09/15 07:44:52;;;;;;;;;;;18.20;99.90;;;;;;5094469;28;19924;-71
2021/09/15 07:47:24;;;;;;;;;;;18.20;99.90;;;;;;5078340;28;19954;-72
2021/09/15 07:49:56;;;;;;;;;;;18.30;99.90;;;;;;5112900;28;20158;-71
2021/09/15 07:52:27;;;;;;;;;;;18.40;99.90;;;;;;5095699;28;20047;-72
2021/09/15 07:54:56;;;;;;;;;;;18.40;99.90;;;;;;5077824;28;19959;-71
2021/09/15 07:57:29;;;;;;;;;;;18.50;99.90;;;;;;5078417;28;19930;-72
2021/09/15 08:00:01;;;;;;;;;;;18.60;99.90;;;;;;5094288;28;20382;-72
2021/09/15 08:02:39;;;;;;;;;;;18.60;99.90;;;;;;5088314;28;19931;-72
2021/09/15 08:05:06;;;;;;;;;;;18.60;99.90;;;;;;5094549;28;20015;-72
2021/09/15 08:07:38;;;;;;;;;;;18.70;99.90;;;;;;5095505;28;20383;-72
2021/09/15 08:10:10;;;;;;;;;;;18.70;99.90;;;;;;5112456;28;20275;-72
2021/09/15 08:12:37;;;;;;;;;;;18.70;99.90;;;;;;5077256;28;19923;-72
2021/09/15 08:15:04;;;;;;;;;;;18.70;99.90;;;;;;5093557;28;19930;-73
2021/09/15 08:17:36;;;;;;;;;;;18.60;99.90;;;;;;5078137;28;20034;-73
2021/09/15 08:20:08;;;;;;;;;;;18.60;99.90;;;;;;5112033;28;20410;-72
2021/09/15 08:22:40;;;;;;;;;;;18.60;99.90;;;;;;5094055;28;19955;-72
2021/09/15 08:25:08;;;;;;;;;;;18.50;99.90;;;;;;5111474;28;20131;-72
2021/09/15 08:27:40;;;;;;;;;;;18.50;99.90;;;;;;5094043;28;20384;-72
2021/09/15 08:30:12;;;;;;;;;;;18.50;99.90;;;;;;5112368;28;20220;-71
2021/09/15 08:32:44;;;;;;;;;;;18.50;99.90;;;;;;5095211;28;19924;-71
2021/09/15 08:35:16;;;;;;;;;;;18.40;99.90;;;;;;5093620;28;19924;-71
2021/09/15 08:37:47;;;;;;;;;;;18.40;99.90;;;;;;5093684;28;20275;-71
2021/09/15 08:40:14;;;;;;;;;;;18.40;99.90;;;;;;5071554;28;19977;-71
2021/09/15 08:42:41;;;;;;;;;;;18.30;99.90;;;;;;5111669;28;19978;-71
2021/09/15 08:45:08;;;;;;;;;;;18.30;99.90;;;;;;5090237;28;20042;-71
2021/09/15 08:47:41;;;;;;;;;;;18.20;99.90;;;;;;5107836;28;19924;-71
2021/09/15 08:50:11;;;;;;;;;;;18.20;99.90;;;;;;5090442;28;20030;-71
2021/09/15 08:52:43;;;;;;;;;;;18.20;99.90;;;;;;5086052;28;20027;-71
2021/09/15 08:55:16;;;;;;;;;;;18.30;99.90;;;;;;5087378;28;19950;-71
2021/09/15 08:57:48;;;;;;;;;;;18.40;99.90;;;;;;5097171;27;19958;-71
2021/09/15 09:00:16;;;;;;;;;;;18.50;99.90;;;;;;5090871;28;20026;-71
2021/09/15 09:02:50;;;;;;;;;;;18.60;99.90;;;;;;5092494;28;19931;-71
2021/09/15 09:05:22;;;;;;;;;;;18.70;99.90;;;;;;5090933;28;19934;-71
2021/09/15 09:07:55;;;;;;;;;;;18.80;99.90;;;;;;5092867;28;19923;-71
2021/09/15 09:10:23;;;;;;;;;;;18.90;99.90;;;;;;5087888;28;20394;-71
2021/09/15 09:12:50;;;;;;;;;;;18.90;99.90;;;;;;5095269;28;19924;-71
2021/09/15 09:15:24;;;;;;;;;;;18.90;99.90;;;;;;5092724;28;20021;-71
2021/09/15 09:18:09;;;;;;;;;;;19.00;99.90;;;;;;5093148;28;19924;-71
2021/09/15 09:20:36;;;;;;;;;;;19.00;99.90;;;;;;5076195;28;20386;-71
2021/09/15 09:23:20;;;;;;;;;;;19.10;99.90;;;;;;5092840;28;19966;-71
2021/09/15 09:25:51;;;;;;;;;;;19.20;99.90;;;;;;5093894;28;19924;-71
2021/09/15 09:28:30;;;;;;;;;;;19.20;99.90;;;;;;5097285;28;19934;-71
2021/09/15 09:31:06;;;;;;;;;;;19.20;99.90;;;;;;5095449;27;19971;-71
2021/09/15 09:34:03;;;;;;;;;;;19.30;99.90;;;;;;5080167;28;19963;-72
2021/09/15 09:36:35;;;;;;;;;;;19.40;99.90;;;;;;5081022;28;20022;-72
2021/09/15 09:39:10;;;;;;;;;;;19.50;99.90;;;;;;5096677;28;19951;-72
2021/09/15 09:41:37;;;;;;;;;;;19.60;99.90;;;;;;5114796;28;19927;-72
2021/09/15 09:44:03;;;;;;;;;;;19.70;99.90;;;;;;5115002;28;19966;-72
2021/09/15 09:46:41;;;;;;;;;;;19.80;99.90;;;;;;5097527;28;20381;-72
2021/09/15 09:49:18;;;;;;;;;;;19.90;99.90;;;;;;5096527;28;19924;-72
2021/09/15 09:51:45;;;;;;;;;;;20.10;99.90;;;;;;5076461;28;20006;-71
2021/09/15 09:54:16;;;;;;;;;;;20.20;99.90;;;;;;5076042;28;19924;-71
2021/09/15 09:56:51;;;;;;;;;;;20.40;99.90;;;;;;5076966;28;19924;-71
2021/09/15 09:59:19;;;;;;;;;;;20.60;99.90;;;;;;5107771;27;19991;-72
2021/09/15 10:01:54;;;;;;;;;;;20.70;99.90;;;;;;5115291;27;20022;-71
2021/09/15 10:04:27;;;;;;;;;;;20.80;99.90;;;;;;5096662;28;20030;-71
2021/09/15 10:06:55;;;;;;;;;;;20.90;99.90;;;;;;5114737;28;20026;-71
2021/09/15 10:09:27;;;;;;;;;;;21.00;99.90;;;;;;5095887;28;19963;-71
2021/09/15 10:12:00;;;;;;;;;;;21.20;99.90;;;;;;5114576;28;20030;-71
2021/09/15 10:14:27;;;;;;;;;;;21.40;99.90;;;;;;5079018;28;19930;-71
2021/09/15 10:17:05;;;;;;;;;;;21.60;99.90;;;;;;5096031;28;20030;-72
2021/09/15 10:19:41;;;;;;;;;;;21.70;99.90;;;;;;5096267;28;19924;-72
2021/09/15 10:22:08;;;;;;;;;;;21.80;99.90;;;;;;5079466;28;19959;-71
2021/09/15 10:24:47;;;;;;;;;;;21.80;99.90;;;;;;5091435;28;20019;-71
2021/09/15 10:27:20;;;;;;;;;;;21.80;99.90;;;;;;5095950;28;19924;-71
2021/09/15 10:30:03;;;;;;;;;;;21.80;99.90;;;;;;5100635;28;19924;-72
2021/09/15 10:32:44;;;;;;;;;;;21.80;99.90;;;;;;5082774;28;19956;-71
2021/09/15 10:35:35;;;;;;;;;;;21.80;99.90;;;;;;5079518;28;19923;-70
2021/09/15 10:38:02;;;;;;;;;;;21.80;99.90;;;;;;5095842;28;19923;-71
2021/09/15 10:40:35;;;;;;;;;;;21.90;99.90;;;;;;5114002;28;20018;-71
2021/09/15 10:43:03;;;;;;;;;;;22.00;99.90;;;;;;5093205;28;19930;-72
2021/09/15 10:45:30;;;;;;;;;;;22.00;99.90;;;;;;5095626;28;20031;-71
2021/09/15 10:48:13;;;;;;;;;;;22.00;99.90;;;;;;5079728;28;19924;-71
2021/09/15 10:50:42;;;;;;;;;;;22.10;99.90;;;;;;5079229;28;20375;-70
2021/09/15 10:53:16;;;;;;;;;;;22.10;99.90;;;;;;5096031;28;19923;-72
2021/09/15 10:55:43;;;;;;;;;;;22.10;99.90;;;;;;5091365;28;19927;-72
2021/09/15 10:58:16;;;;;;;;;;;22.10;99.90;;;;;;5095349;28;19924;-72
2021/09/15 11:00:47;;;;;;;;;;;22.10;99.90;;;;;;5108177;28;20022;-71
2021/09/15 11:03:39;;;;;;;;;;;22.20;99.90;;;;;;5103401;27;19924;-72
2021/09/15 11:06:12;;;;;;;;;;;22.20;99.90;;;;;;5069281;28;20453;-72
2021/09/15 11:08:45;;;;;;;;;;;22.20;99.90;;;;;;5091913;28;19928;-72
2021/09/15 11:11:21;;;;;;;;;;;22.20;99.90;;;;;;5076892;28;20093;-73
2021/09/15 11:13:51;;;;;;;;;;;22.30;99.90;;;;;;5109924;28;20019;-72
2021/09/15 11:16:26;;;;;;;;;;;22.40;99.90;;;;;;5096001;28;19956;-72
2021/09/15 11:18:56;;;;;;;;;;;22.40;99.90;;;;;;5095191;28;20038;-73
2021/09/15 11:21:30;;;;;;;;;;;22.50;99.90;;;;;;5078291;28;19932;-73
2021/09/15 11:24:10;;;;;;;;;;;22.70;99.90;;;;;;5078231;28;20294;-73
2021/09/15 11:26:41;;;;;;;;;;;22.90;99.90;;;;;;5117646;27;19934;-73
2021/09/15 11:29:08;;;;;;;;;;;23.00;99.90;;;;;;5092711;28;19924;-73
2021/09/15 11:31:40;;;;;;;;;;;23.10;99.90;;;;;;5075145;28;19930;-73
2021/09/15 11:34:14;;;;;;;;;;;23.00;99.90;;;;;;5092917;28;19934;-73
2021/09/15 11:36:48;;;;;;;;;;;23.00;99.90;;;;;;5097919;28;20006;-73
2021/09/15 11:39:16;;;;;;;;;;;22.90;99.90;;;;;;5074110;28;20039;-72
2021/09/15 11:41:49;;;;;;;;;;;22.90;99.90;;;;;;5092530;28;20401;-72
2021/09/15 11:44:23;;;;;;;;;;;23.00;99.90;;;;;;5073360;28;19958;-72
2021/09/15 11:46:50;;;;;;;;;;;23.00;99.90;;;;;;5088472;28;19924;-72
2021/09/15 11:49:28;;;;;;;;;;;23.10;99.90;;;;;;5076432;28;20366;-72
2021/09/15 11:52:02;;;;;;;;;;;23.20;99.90;;;;;;5090069;28;20443;-72
2021/09/15 11:54:29;;;;;;;;;;;23.30;99.90;;;;;;5071187;28;19986;-72
2021/09/15 11:57:05;;;;;;;;;;;23.50;99.90;;;;;;5092160;28;20455;-72
2021/09/15 11:59:33;;;;;;;;;;;23.50;99.90;;;;;;5093852;28;20011;-72
2021/09/15 12:02:04;;;;;;;;;;;23.50;99.90;;;;;;5077001;28;19963;-72
2021/09/15 12:04:32;;;;;;;;;;;23.50;99.90;;;;;;5111615;28;20026;-72
2021/09/15 12:06:59;;;;;;;;;;;23.40;99.90;;;;;;5076901;28;19973;-72
2021/09/15 12:09:35;;;;;;;;;;;23.30;99.90;;;;;;5093471;28;19927;-72
2021/09/15 12:12:08;;;;;;;;;;;23.20;99.90;;;;;;5111692;28;19930;-72
2021/09/15 12:14:43;;;;;;;;;;;23.10;99.90;;;;;;5093002;28;20004;-72
2021/09/15 12:17:09;;;;;;;;;;;23.00;99.90;;;;;;5076918;28;20555;-72
2021/09/15 12:19:48;;;;;;;;;;;23.00;99.90;;;;;;5077811;28;19924;-72
2021/09/15 12:22:19;;;;;;;;;;;23.00;99.90;;;;;;5093643;28;19932;-72
2021/09/15 12:24:58;;;;;;;;;;;22.90;99.90;;;;;;5077071;28;19930;-72
2021/09/15 12:27:24;;;;;;;;;;;22.90;99.90;;;;;;5093805;28;20034;-72
2021/09/15 12:30:01;;;;;;;;;;;22.90;99.90;;;;;;5093370;28;19930;-72
2021/09/15 12:32:28;;;;;;;;;;;22.90;99.90;;;;;;5111484;28;20014;-72
2021/09/15 12:35:00;;;;;;;;;;;22.80;99.90;;;;;;5093124;28;19924;-72
2021/09/15 12:37:39;;;;;;;;;;;22.80;99.90;;;;;;5111486;28;20011;-73
2021/09/15 12:40:18;;;;;;;;;;;22.80;99.90;;;;;;5091666;28;19923;-73
2021/09/15 12:42:57;;;;;;;;;;;22.80;99.90;;;;;;5111173;28;19946;-73
2021/09/15 12:45:30;;;;;;;;;;;22.80;99.90;;;;;;5080107;28;20018;-73
2021/09/15 12:48:02;;;;;;;;;;;22.70;99.90;;;;;;5092842;28;19923;-73
2021/09/15 12:50:34;;;;;;;;;;;22.70;99.90;;;;;;5092969;28;19924;-73
2021/09/15 12:53:08;;;;;;;;;;;22.60;99.90;;;;;;5093940;28;19923;-72
2021/09/15 12:55:55;;;;;;;;;;;22.60;99.90;;;;;;5092196;28;20027;-73
2021/09/15 12:58:27;;;;;;;;;;;22.60;99.90;;;;;;5069056;28;20346;-73
2021/09/15 13:00:59;;;;;;;;;;;22.60;99.90;;;;;;5088748;28;19924;-73
2021/09/15 13:03:34;;;;;;;;;;;22.60;99.90;;;;;;5097117;28;20364;-73
2021/09/15 13:06:06;;;;;;;;;;;22.60;99.90;;;;;;5076659;28;19946;-73
2021/09/15 13:08:45;;;;;;;;;;;22.70;99.90;;;;;;5077108;28;19924;-72
2021/09/15 13:11:17;;;;;;;;;;;22.70;99.90;;;;;;5065268;28;20011;-72
2021/09/15 13:13:49;;;;;;;;;;;22.80;99.90;;;;;;5074887;28;20342;-73
2021/09/15 13:16:21;;;;;;;;;;;22.80;99.90;;;;;;5115040;28;20546;-72
2021/09/15 13:18:48;;;;;;;;;;;22.90;99.90;;;;;;5114171;28;20386;-73
2021/09/15 13:21:20;;;;;;;;;;;23.00;99.90;;;;;;5096331;28;20022;-74
2021/09/15 13:23:51;;;;;;;;;;;23.10;99.90;;;;;;5097036;28;19924;-72
2021/09/15 13:26:26;;;;;;;;;;;23.20;99.90;;;;;;5096421;28;19924;-73
2021/09/15 13:28:58;;;;;;;;;;;23.30;99.90;;;;;;5080568;28;20057;-73
2021/09/15 13:31:24;;;;;;;;;;;23.40;99.90;;;;;;5096921;28;19927;-73
2021/09/15 13:33:56;;;;;;;;;;;23.60;99.90;;;;;;5096199;27;19945;-73
2021/09/15 13:36:28;;;;;;;;;;;23.70;99.90;;;;;;5096511;28;19924;-73
2021/09/15 13:39:00;;;;;;;;;;;23.70;99.90;;;;;;5096627;28;20018;-73
2021/09/15 13:41:31;;;;;;;;;;;23.90;99.90;;;;;;5079076;28;19930;-73
2021/09/15 13:43:58;;;;;;;;;;;24.00;99.90;;;;;;5096326;28;19931;-72
2021/09/15 13:46:30;;;;;;;;;;;24.00;99.90;;;;;;5114788;28;19961;-72
2021/09/15 13:48:56;;;;;;;;;;;24.20;99.90;;;;;;5096390;28;20373;-72
2021/09/15 13:51:23;;;;;;;;;;;24.20;99.90;;;;;;5114752;28;19930;-72
2021/09/15 13:53:55;;;;;;;;;;;24.20;99.90;;;;;;5114672;28;19924;-72
2021/09/15 13:56:26;;;;;;;;;;;24.00;99.90;;;;;;5112760;28;20382;-72
2021/09/15 13:58:58;;;;;;;;;;;23.90;99.90;;;;;;5094672;28;19974;-73
2021/09/15 14:01:25;;;;;;;;;;;23.80;99.90;;;;;;5112969;28;19969;-73
2021/09/15 14:03:58;;;;;;;;;;;23.70;99.90;;;;;;5093111;28;19950;-73
2021/09/15 14:06:25;;;;;;;;;;;23.60;99.90;;;;;;5095333;28;20012;-73
2021/09/15 14:08:57;;;;;;;;;;;23.60;99.90;;;;;;5089841;28;20340;-73
2021/09/15 14:11:29;;;;;;;;;;;23.40;99.90;;;;;;5113001;28;19951;-73
2021/09/15 14:13:56;;;;;;;;;;;23.40;99.90;;;;;;5095630;28;19924;-72
2021/09/15 14:16:24;;;;;;;;;;;23.30;99.90;;;;;;5094491;28;20018;-72
2021/09/15 14:18:56;;;;;;;;;;;23.20;99.90;;;;;;5092084;28;20340;-72
2021/09/15 14:21:27;;;;;;;;;;;23.20;99.90;;;;;;5077047;28;19958;-72
2021/09/15 14:23:54;;;;;;;;;;;23.20;99.90;;;;;;5092299;28;20038;-72
2021/09/15 14:26:21;;;;;;;;;;;23.20;99.90;;;;;;5077941;28;20481;-72
2021/09/15 14:28:52;;;;;;;;;;;23.20;99.90;;;;;;5078602;28;20412;-72
2021/09/15 14:31:19;;;;;;;;;;;23.30;99.90;;;;;;5113472;28;20491;-73
2021/09/15 14:33:46;;;;;;;;;;;23.40;99.90;;;;;;5095502;28;19962;-73
2021/09/15 14:36:18;;;;;;;;;;;23.40;99.90;;;;;;5112687;28;20392;-73
2021/09/15 14:38:46;;;;;;;;;;;23.40;99.90;;;;;;5094117;28;19923;-73
2021/09/15 14:41:14;;;;;;;;;;;23.40;99.90;;;;;;5107128;28;19959;-73
2021/09/15 14:43:46;;;;;;;;;;;23.40;99.90;;;;;;5078586;28;19924;-73
2021/09/15 14:46:13;;;;;;;;;;;23.40;99.90;;;;;;5108466;28;20010;-73
2021/09/15 14:48:45;;;;;;;;;;;23.40;99.90;;;;;;5094290;28;19928;-73
2021/09/15 14:51:12;;;;;;;;;;;23.40;99.90;;;;;;5086715;28;20321;-73
2021/09/15 14:53:44;;;;;;;;;;;23.40;99.90;;;;;;5093533;28;19924;-72